sensor_id;sensor_type;location;lat;lon;timestamp;temperature;humidity
4050;DHT22;2039;50.894;6.888;2024-03-17T00:01:09;6.50;99.90
4050;DHT22;2039;50.894;6.888;2024-03-17T00:03:34;6.50;99.90
4050;DHT22;2039;50.894;6.888;2024-03-17T00:06:01;6.60;99.90
4050;DHT22;2039;50.894;6.888;2024-03-17T00:08:27;6.50;99.90
4050;DHT22;2039;50.894;6.888;2024-03-17T00:10:53;6.50;99.90
4050;DHT22;2039;50.894;6.888;2024-03-17T00:13:20;6.50;99.90
4050;DHT22;2039;50.894;6.888;2024-03-17T00:15:47;6.50;99.90
4050;DHT22;2039;50.894;6.888;2024-03-17T00:18:13;6.50;99.90
4050;DHT22;2039;50.894;6.888;2024-03-17T00:20:40;6.50;99.90
4050;DHT22;2039;50.894;6.888;2024-03-17T00:23:05;6.60;99.90
4050;DHT22;2039;50.894;6.888;2024-03-17T00:25:32;6.60;99.90
4050;DHT22;2039;50.894;6.888;2024-03-17T00:27:59;6.50;99.90
4050;DHT22;2039;50.894;6.888;2024-03-17T00:30:25;6.50;99.90
4050;DHT22;2039;50.894;6.888;2024-03-17T00:32:51;6.40;99.90
4050;DHT22;2039;50.894;6.888;2024-03-17T00:35:16;6.40;99.90
4050;DHT22;2039;50.894;6.888;2024-03-17T00:37:49;6.40;99.90
4050;DHT22;2039;50.894;6.888;2024-03-17T00:40:17;6.40;99.90
4050;DHT22;2039;50.894;6.888;2024-03-17T00:42:43;6.30;99.90
4050;DHT22;2039;50.894;6.888;2024-03-17T00:45:10;6.30;99.90
4050;DHT22;2039;50.894;6.888;2024-03-17T00:47:37;6.40;99.90
4050;DHT22;2039;50.894;6.888;2024-03-17T00:50:03;6.40;99.90
4050;DHT22;2039;50.894;6.888;2024-03-17T00:52:30;6.40;99.90
4050;DHT22;2039;50.894;6.888;2024-03-17T00:54:56;6.40;99.90
4050;DHT22;2039;50.894;6.888;2024-03-17T00:57:21;6.40;99.90
4050;DHT22;2039;50.894;6.888;2024-03-17T00:59:47;6.40;99.90
4050;DHT22;2039;50.894;6.888;2024-03-17T01:02:14;6.40;99.90
4050;DHT22;2039;50.894;6.888;2024-03-17T01:04:42;6.40;99.90
4050;DHT22;2039;50.894;6.888;2024-03-17T01:07:09;6.40;99.90
4050;DHT22;2039;50.894;6.888;2024-03-17T01:09:35;6.40;99.90
4050;DHT22;2039;50.894;6.888;2024-03-17T01:12:00;6.40;99.90
4050;DHT22;2039;50.894;6.888;2024-03-17T01:14:27;6.40;99.90
4050;DHT22;2039;50.894;6.888;2024-03-17T01:16:54;6.30;99.90
4050;DHT22;2039;50.894;6.888;2024-03-17T01:19:19;6.30;99.90
4050;DHT22;2039;50.894;6.888;2024-03-17T01:21:45;6.30;99.90
4050;DHT22;2039;50.894;6.888;2024-03-17T01:24:11;6.40;99.90
4050;DHT22;2039;50.894;6.888;2024-03-17T01:26:37;6.40;99.90
4050;DHT22;2039;50.894;6.888;2024-03-17T01:29:02;6.40;99.90
4050;DHT22;2039;50.894;6.888;2024-03-17T01:31:28;6.40;99.90
4050;DHT22;2039;50.894;6.888;2024-03-17T01:33:54;6.40;99.90
4050;DHT22;2039;50.894;6.888;2024-03-17T01:36:20;6.40;99.90
4050;DHT22;2039;50.894;6.888;2024-03-17T01:38:45;6.40;99.90
4050;DHT22;2039;50.894;6.888;2024-03-17T01:41:12;6.40;99.90
4050;DHT22;2039;50.894;6.888;2024-03-17T01:43:38;6.30;99.90
4050;DHT22;2039;50.894;6.888;2024-03-17T01:46:04;6.40;99.90
4050;DHT22;2039;50.894;6.888;2024-03-17T01:48:31;6.40;99.90
4050;DHT22;2039;50.894;6.888;2024-03-17T01:50:57;6.40;99.90
4050;DHT22;2039;50.894;6.888;2024-03-17T01:53:23;6.50;99.90
4050;DHT22;2039;50.894;6.888;2024-03-17T01:55:53;6.40;99.90
4050;DHT22;2039;50.894;6.888;2024-03-17T01:58:24;6.30;99.90
4050;DHT22;2039;50.894;6.888;2024-03-17T02:00:50;6.30;99.90
4050;DHT22;2039;50.894;6.888;2024-03-17T02:03:17;6.30;99.90
4050;DHT22;2039;50.894;6.888;2024-03-17T02:05:44;6.30;99.90
4050;DHT22;2039;50.894;6.888;2024-03-17T02:08:10;6.30;99.90
4050;DHT22;2039;50.894;6.888;2024-03-17T02:10:37;6.20;99.90
4050;DHT22;2039;50.894;6.888;2024-03-17T02:13:03;6.20;99.90
4050;DHT22;2039;50.894;6.888;2024-03-17T02:15:30;6.20;99.90
4050;DHT22;2039;50.894;6.888;2024-03-17T02:17:56;6.10;99.90
4050;DHT22;2039;50.894;6.888;2024-03-17T02:20:22;6.10;99.90
4050;DHT22;2039;50.894;6.888;2024-03-17T02:23:11;6.00;99.90
4050;DHT22;2039;50.894;6.888;2024-03-17T02:25:36;5.90;99.90
4050;DHT22;2039;50.894;6.888;2024-03-17T02:28:02;5.90;99.90
4050;DHT22;2039;50.894;6.888;2024-03-17T02:30:28;5.90;99.90
4050;DHT22;2039;50.894;6.888;2024-03-17T02:32:55;5.90;99.90
4050;DHT22;2039;50.894;6.888;2024-03-17T02:35:25;5.80;99.90
4050;DHT22;2039;50.894;6.888;2024-03-17T02:37:51;5.80;99.90
4050;DHT22;2039;50.894;6.888;2024-03-17T02:40:17;5.70;99.90
4050;DHT22;2039;50.894;6.888;2024-03-17T02:42:44;5.60;99.90
4050;DHT22;2039;50.894;6.888;2024-03-17T02:45:11;5.60;99.90
4050;DHT22;2039;50.894;6.888;2024-03-17T02:47:38;5.50;99.90
4050;DHT22;2039;50.894;6.888;2024-03-17T02:50:04;5.50;99.90
4050;DHT22;2039;50.894;6.888;2024-03-17T02:52:30;5.50;99.90
4050;DHT22;2039;50.894;6.888;2024-03-17T02:54:55;5.50;99.90
4050;DHT22;2039;50.894;6.888;2024-03-17T02:57:22;5.50;99.90
4050;DHT22;2039;50.894;6.888;2024-03-17T02:59:50;5.40;99.90
4050;DHT22;2039;50.894;6.888;2024-03-17T03:02:17;5.40;99.90
4050;DHT22;2039;50.894;6.888;2024-03-17T03:04:43;5.40;99.90
4050;DHT22;2039;50.894;6.888;2024-03-17T03:07:08;5.40;99.90
4050;DHT22;2039;50.894;6.888;2024-03-17T03:09:34;5.40;99.90
4050;DHT22;2039;50.894;6.888;2024-03-17T03:12:00;5.40;99.90
4050;DHT22;2039;50.894;6.888;2024-03-17T03:14:28;5.40;99.90
4050;DHT22;2039;50.894;6.888;2024-03-17T03:16:57;5.40;99.90
4050;DHT22;2039;50.894;6.888;2024-03-17T03:19:24;5.40;99.90
4050;DHT22;2039;50.894;6.888;2024-03-17T03:21:50;5.40;99.90
4050;DHT22;2039;50.894;6.888;2024-03-17T03:24:16;5.40;99.90
4050;DHT22;2039;50.894;6.888;2024-03-17T03:26:42;5.30;99.90
4050;DHT22;2039;50.894;6.888;2024-03-17T03:29:09;5.30;99.90
4050;DHT22;2039;50.894;6.888;2024-03-17T03:31:36;5.30;99.90
4050;DHT22;2039;50.894;6.888;2024-03-17T03:34:05;5.30;99.90
4050;DHT22;2039;50.894;6.888;2024-03-17T03:36:34;5.30;99.90
4050;DHT22;2039;50.894;6.888;2024-03-17T03:39:00;5.20;99.90
4050;DHT22;2039;50.894;6.888;2024-03-17T03:41:25;5.20;99.90
4050;DHT22;2039;50.894;6.888;2024-03-17T03:43:52;5.30;99.90
4050;DHT22;2039;50.894;6.888;2024-03-17T03:46:19;5.30;99.90
4050;DHT22;2039;50.894;6.888;2024-03-17T03:48:46;5.30;99.90
4050;DHT22;2039;50.894;6.888;2024-03-17T03:51:11;5.30;99.90
4050;DHT22;2039;50.894;6.888;2024-03-17T03:53:37;5.20;99.90
4050;DHT22;2039;50.894;6.888;2024-03-17T03:56:04;5.20;99.90
4050;DHT22;2039;50.894;6.888;2024-03-17T03:58:37;5.20;99.90
4050;DHT22;2039;50.894;6.888;2024-03-17T04:01:07;5.20;99.90
4050;DHT22;2039;50.894;6.888;2024-03-17T04:03:34;5.20;99.90
4050;DHT22;2039;50.894;6.888;2024-03-17T04:06:07;5.20;99.90
4050;DHT22;2039;50.894;6.888;2024-03-17T04:08:34;5.20;99.90
4050;DHT22;2039;50.894;6.888;2024-03-17T04:11:01;5.10;99.90
4050;DHT22;2039;50.894;6.888;2024-03-17T04:13:31;5.10;99.90
4050;DHT22;2039;50.894;6.888;2024-03-17T04:15:57;5.10;99.90
4050;DHT22;2039;50.894;6.888;2024-03-17T04:18:27;5.10;99.90
4050;DHT22;2039;50.894;6.888;2024-03-17T04:20:56;5.10;99.90
4050;DHT22;2039;50.894;6.888;2024-03-17T04:23:22;5.20;99.90
4050;DHT22;2039;50.894;6.888;2024-03-17T04:25:50;5.30;99.90
4050;DHT22;2039;50.894;6.888;2024-03-17T04:28:16;5.30;99.90
4050;DHT22;2039;50.894;6.888;2024-03-17T04:30:42;5.30;99.90
4050;DHT22;2039;50.894;6.888;2024-03-17T04:33:11;5.40;99.90
4050;DHT22;2039;50.894;6.888;2024-03-17T04:35:40;5.30;99.90
4050;DHT22;2039;50.894;6.888;2024-03-17T04:38:07;5.40;99.90
4050;DHT22;2039;50.894;6.888;2024-03-17T04:40:33;5.40;99.90
4050;DHT22;2039;50.894;6.888;2024-03-17T04:42:59;5.40;99.90
4050;DHT22;2039;50.894;6.888;2024-03-17T04:45:25;5.50;99.90
4050;DHT22;2039;50.894;6.888;2024-03-17T04:47:51;5.50;99.90
4050;DHT22;2039;50.894;6.888;2024-03-17T04:50:17;5.50;99.90
4050;DHT22;2039;50.894;6.888;2024-03-17T04:52:43;5.50;99.90
4050;DHT22;2039;50.894;6.888;2024-03-17T04:55:09;5.60;99.90
4050;DHT22;2039;50.894;6.888;2024-03-17T04:57:35;5.60;99.90
4050;DHT22;2039;50.894;6.888;2024-03-17T05:00:02;5.60;99.90
4050;DHT22;2039;50.894;6.888;2024-03-17T05:02:31;5.60;99.90
4050;DHT22;2039;50.894;6.888;2024-03-17T05:04:58;5.60;99.90
4050;DHT22;2039;50.894;6.888;2024-03-17T05:07:24;5.60;99.90
4050;DHT22;2039;50.894;6.888;2024-03-17T05:09:49;5.60;99.90
4050;DHT22;2039;50.894;6.888;2024-03-17T05:12:16;5.60;99.90
4050;DHT22;2039;50.894;6.888;2024-03-17T05:14:41;5.60;99.90
4050;DHT22;2039;50.894;6.888;2024-03-17T05:17:07;5.60;99.90
4050;DHT22;2039;50.894;6.888;2024-03-17T05:19:32;5.60;99.90
4050;DHT22;2039;50.894;6.888;2024-03-17T05:21:58;5.70;99.90
4050;DHT22;2039;50.894;6.888;2024-03-17T05:24:24;5.70;99.90
4050;DHT22;2039;50.894;6.888;2024-03-17T05:26:50;5.60;99.90
4050;DHT22;2039;50.894;6.888;2024-03-17T05:29:16;5.60;99.90
4050;DHT22;2039;50.894;6.888;2024-03-17T05:31:41;5.60;99.90
4050;DHT22;2039;50.894;6.888;2024-03-17T05:34:09;5.60;99.90
4050;DHT22;2039;50.894;6.888;2024-03-17T05:36:36;5.60;99.90
4050;DHT22;2039;50.894;6.888;2024-03-17T05:39:02;5.60;99.90
4050;DHT22;2039;50.894;6.888;2024-03-17T05:41:27;5.50;99.90
4050;DHT22;2039;50.894;6.888;2024-03-17T05:43:53;5.50;99.90
4050;DHT22;2039;50.894;6.888;2024-03-17T05:46:22;5.50;99.90
4050;DHT22;2039;50.894;6.888;2024-03-17T05:48:48;5.40;99.90
4050;DHT22;2039;50.894;6.888;2024-03-17T05:51:13;5.40;99.90
4050;DHT22;2039;50.894;6.888;2024-03-17T05:53:41;5.40;99.90
4050;DHT22;2039;50.894;6.888;2024-03-17T05:56:09;5.40;99.90
4050;DHT22;2039;50.894;6.888;2024-03-17T05:58:37;5.40;99.90
4050;DHT22;2039;50.894;6.888;2024-03-17T06:01:06;5.40;99.90
4050;DHT22;2039;50.894;6.888;2024-03-17T06:03:35;5.40;99.90
4050;DHT22;2039;50.894;6.888;2024-03-17T06:06:05;5.40;99.90
4050;DHT22;2039;50.894;6.888;2024-03-17T06:08:35;5.50;99.90
4050;DHT22;2039;50.894;6.888;2024-03-17T06:11:00;5.40;99.90
4050;DHT22;2039;50.894;6.888;2024-03-17T06:13:27;5.40;99.90
4050;DHT22;2039;50.894;6.888;2024-03-17T06:15:54;5.50;99.90
4050;DHT22;2039;50.894;6.888;2024-03-17T06:18:19;5.40;99.90
4050;DHT22;2039;50.894;6.888;2024-03-17T06:20:48;5.40;99.90
4050;DHT22;2039;50.894;6.888;2024-03-17T06:23:15;5.50;99.90
4050;DHT22;2039;50.894;6.888;2024-03-17T06:25:44;5.50;99.90
4050;DHT22;2039;50.894;6.888;2024-03-17T06:28:11;5.50;99.90
4050;DHT22;2039;50.894;6.888;2024-03-17T06:30:43;5.50;99.90
4050;DHT22;2039;50.894;6.888;2024-03-17T06:33:11;5.50;99.90
4050;DHT22;2039;50.894;6.888;2024-03-17T06:35:38;5.60;99.90
4050;DHT22;2039;50.894;6.888;2024-03-17T06:38:04;5.60;99.90
4050;DHT22;2039;50.894;6.888;2024-03-17T06:40:30;5.70;99.90
4050;DHT22;2039;50.894;6.888;2024-03-17T06:42:56;5.70;99.90
4050;DHT22;2039;50.894;6.888;2024-03-17T06:45:23;5.80;99.90
4050;DHT22;2039;50.894;6.888;2024-03-17T06:47:49;5.90;99.90
4050;DHT22;2039;50.894;6.888;2024-03-17T06:50:15;5.90;99.90
4050;DHT22;2039;50.894;6.888;2024-03-17T06:52:41;5.90;99.90
4050;DHT22;2039;50.894;6.888;2024-03-17T06:55:07;6.00;99.90
4050;DHT22;2039;50.894;6.888;2024-03-17T06:57:36;6.10;99.90
4050;DHT22;2039;50.894;6.888;2024-03-17T07:00:02;6.10;99.90
4050;DHT22;2039;50.894;6.888;2024-03-17T07:02:34;6.10;99.90
4050;DHT22;2039;50.894;6.888;2024-03-17T07:05:01;6.10;99.90
4050;DHT22;2039;50.894;6.888;2024-03-17T07:07:27;6.10;99.90
4050;DHT22;2039;50.894;6.888;2024-03-17T07:09:53;6.10;99.90
4050;DHT22;2039;50.894;6.888;2024-03-17T07:12:19;6.20;99.90
4050;DHT22;2039;50.894;6.888;2024-03-17T07:14:46;6.20;99.90
4050;DHT22;2039;50.894;6.888;2024-03-17T07:17:11;6.30;99.90
4050;DHT22;2039;50.894;6.888;2024-03-17T07:19:37;6.30;99.90
4050;DHT22;2039;50.894;6.888;2024-03-17T07:22:03;6.30;99.90
4050;DHT22;2039;50.894;6.888;2024-03-17T07:24:30;6.40;99.90
4050;DHT22;2039;50.894;6.888;2024-03-17T07:26:56;6.40;99.90
4050;DHT22;2039;50.894;6.888;2024-03-17T07:29:22;6.50;99.90
4050;DHT22;2039;50.894;6.888;2024-03-17T07:31:47;6.60;99.90
4050;DHT22;2039;50.894;6.888;2024-03-17T07:34:13;6.70;99.90
4050;DHT22;2039;50.894;6.888;2024-03-17T07:36:39;6.80;99.90
4050;DHT22;2039;50.894;6.888;2024-03-17T07:39:05;6.90;99.90
4050;DHT22;2039;50.894;6.888;2024-03-17T07:41:32;6.90;99.90
4050;DHT22;2039;50.894;6.888;2024-03-17T07:43:58;6.90;99.90
4050;DHT22;2039;50.894;6.888;2024-03-17T07:46:24;7.00;99.90
4050;DHT22;2039;50.894;6.888;2024-03-17T07:48:50;7.10;99.90
4050;DHT22;2039;50.894;6.888;2024-03-17T07:51:16;7.10;99.90
4050;DHT22;2039;50.894;6.888;2024-03-17T07:53:43;7.20;99.90
4050;DHT22;2039;50.894;6.888;2024-03-17T07:56:18;7.30;99.90
4050;DHT22;2039;50.894;6.888;2024-03-17T07:58:45;7.30;99.90
4050;DHT22;2039;50.894;6.888;2024-03-17T08:01:14;7.40;99.90
4050;DHT22;2039;50.894;6.888;2024-03-17T08:03:45;7.40;99.90
4050;DHT22;2039;50.894;6.888;2024-03-17T08:06:11;7.50;99.90
4050;DHT22;2039;50.894;6.888;2024-03-17T08:08:37;7.60;99.90
4050;DHT22;2039;50.894;6.888;2024-03-17T08:11:03;7.70;99.90
4050;DHT22;2039;50.894;6.888;2024-03-17T08:13:30;7.70;99.90
4050;DHT22;2039;50.894;6.888;2024-03-17T08:16:04;7.80;99.90
4050;DHT22;2039;50.894;6.888;2024-03-17T08:18:36;7.90;99.90
4050;DHT22;2039;50.894;6.888;2024-03-17T08:21:02;8.00;99.90
4050;DHT22;2039;50.894;6.888;2024-03-17T08:23:30;8.00;99.90
4050;DHT22;2039;50.894;6.888;2024-03-17T08:25:57;8.10;99.90
4050;DHT22;2039;50.894;6.888;2024-03-17T08:28:23;8.10;99.90
4050;DHT22;2039;50.894;6.888;2024-03-17T08:30:56;8.30;99.90
4050;DHT22;2039;50.894;6.888;2024-03-17T08:33:22;8.30;99.90
4050;DHT22;2039;50.894;6.888;2024-03-17T08:38:23;8.40;99.90
4050;DHT22;2039;50.894;6.888;2024-03-17T08:40:50;8.50;99.90
4050;DHT22;2039;50.894;6.888;2024-03-17T08:43:16;8.60;99.90
4050;DHT22;2039;50.894;6.888;2024-03-17T08:45:42;8.80;99.90
4050;DHT22;2039;50.894;6.888;2024-03-17T08:48:08;9.00;99.90
4050;DHT22;2039;50.894;6.888;2024-03-17T08:50:36;9.10;98.00
4050;DHT22;2039;50.894;6.888;2024-03-17T08:53:02;9.10;99.90
4050;DHT22;2039;50.894;6.888;2024-03-17T08:55:28;9.20;99.90
4050;DHT22;2039;50.894;6.888;2024-03-17T08:57:53;9.30;99.90
4050;DHT22;2039;50.894;6.888;2024-03-17T09:00:22;9.40;95.10
4050;DHT22;2039;50.894;6.888;2024-03-17T09:02:47;9.40;93.10
4050;DHT22;2039;50.894;6.888;2024-03-17T09:05:13;9.50;94.70
4050;DHT22;2039;50.894;6.888;2024-03-17T09:07:39;9.40;88.30
4050;DHT22;2039;50.894;6.888;2024-03-17T09:10:05;9.50;90.40
4050;DHT22;2039;50.894;6.888;2024-03-17T09:12:31;9.70;94.10
4050;DHT22;2039;50.894;6.888;2024-03-17T09:14:57;9.70;87.20
4050;DHT22;2039;50.894;6.888;2024-03-17T09:17:23;9.80;70.50
4050;DHT22;2039;50.894;6.888;2024-03-17T09:19:48;9.90;82.20
4050;DHT22;2039;50.894;6.888;2024-03-17T09:22:14;9.90;71.50
4050;DHT22;2039;50.894;6.888;2024-03-17T09:24:40;10.00;59.80
4050;DHT22;2039;50.894;6.888;2024-03-17T09:27:06;10.00;66.50
4050;DHT22;2039;50.894;6.888;2024-03-17T09:29:32;9.90;48.30
4050;DHT22;2039;50.894;6.888;2024-03-17T09:31:58;10.00;57.50
4050;DHT22;2039;50.894;6.888;2024-03-17T09:34:24;10.00;50.90
4050;DHT22;2039;50.894;6.888;2024-03-17T09:36:50;10.20;41.80
4050;DHT22;2039;50.894;6.888;2024-03-17T09:39:15;10.30;48.00
4050;DHT22;2039;50.894;6.888;2024-03-17T09:41:41;10.40;44.20
4050;DHT22;2039;50.894;6.888;2024-03-17T09:44:11;10.50;47.60
4050;DHT22;2039;50.894;6.888;2024-03-17T09:46:38;10.70;47.10
4050;DHT22;2039;50.894;6.888;2024-03-17T09:49:06;10.90;37.50
4050;DHT22;2039;50.894;6.888;2024-03-17T09:51:38;11.00;27.80
4050;DHT22;2039;50.894;6.888;2024-03-17T09:54:21;11.10;14.50
4050;DHT22;2039;50.894;6.888;2024-03-17T09:56:50;11.20;17.70
4050;DHT22;2039;50.894;6.888;2024-03-17T09:59:16;11.30;1.00
4050;DHT22;2039;50.894;6.888;2024-03-17T10:01:42;11.20;1.00
4050;DHT22;2039;50.894;6.888;2024-03-17T10:04:09;11.40;4.40
4050;DHT22;2039;50.894;6.888;2024-03-17T10:06:45;11.50;1.00
4050;DHT22;2039;50.894;6.888;2024-03-17T10:09:15;11.60;1.00
4050;DHT22;2039;50.894;6.888;2024-03-17T10:11:47;11.70;1.00
4050;DHT22;2039;50.894;6.888;2024-03-17T10:14:16;11.60;1.00
4050;DHT22;2039;50.894;6.888;2024-03-17T10:16:43;11.50;1.00
4050;DHT22;2039;50.894;6.888;2024-03-17T10:19:42;11.70;1.00
4050;DHT22;2039;50.894;6.888;2024-03-17T10:22:05;11.80;1.00
4050;DHT22;2039;50.894;6.888;2024-03-17T10:24:30;11.90;1.00
4050;DHT22;2039;50.894;6.888;2024-03-17T10:26:58;11.90;1.00
4050;DHT22;2039;50.894;6.888;2024-03-17T10:29:31;12.00;1.00
4050;DHT22;2039;50.894;6.888;2024-03-17T10:34:31;12.20;1.00
4050;DHT22;2039;50.894;6.888;2024-03-17T10:39:36;12.30;1.00
4050;DHT22;2039;50.894;6.888;2024-03-17T10:42:04;12.30;1.00
4050;DHT22;2039;50.894;6.888;2024-03-17T10:44:36;12.30;1.00
4050;DHT22;2039;50.894;6.888;2024-03-17T10:47:02;12.40;1.00
4050;DHT22;2039;50.894;6.888;2024-03-17T10:49:35;12.70;1.00
4050;DHT22;2039;50.894;6.888;2024-03-17T10:52:16;12.90;1.00
4050;DHT22;2039;50.894;6.888;2024-03-17T10:54:52;13.10;1.00
4050;DHT22;2039;50.894;6.888;2024-03-17T11:00:01;12.80;1.00
4050;DHT22;2039;50.894;6.888;2024-03-17T11:02:31;12.90;1.00
4050;DHT22;2039;50.894;6.888;2024-03-17T11:07:31;12.90;1.00
4050;DHT22;2039;50.894;6.888;2024-03-17T11:09:59;13.10;1.00
4050;DHT22;2039;50.894;6.888;2024-03-17T11:17:49;14.00;1.00
4050;DHT22;2039;50.894;6.888;2024-03-17T11:20:25;14.00;1.00
4050;DHT22;2039;50.894;6.888;2024-03-17T11:22:52;14.10;1.00
4050;DHT22;2039;50.894;6.888;2024-03-17T11:27:57;14.50;1.00
4050;DHT22;2039;50.894;6.888;2024-03-17T11:39:07;14.40;1.00
4050;DHT22;2039;50.894;6.888;2024-03-17T11:41:47;14.40;1.00
4050;DHT22;2039;50.894;6.888;2024-03-17T11:47:01;14.50;1.00
4050;DHT22;2039;50.894;6.888;2024-03-17T11:52:16;14.30;1.00
4050;DHT22;2039;50.894;6.888;2024-03-17T11:54:47;14.60;1.00
4050;DHT22;2039;50.894;6.888;2024-03-17T11:57:23;14.60;1.00
4050;DHT22;2039;50.894;6.888;2024-03-17T11:59:49;14.80;1.00
4050;DHT22;2039;50.894;6.888;2024-03-17T12:04:48;14.60;1.00
4050;DHT22;2039;50.894;6.888;2024-03-17T12:07:20;14.30;1.00
4050;DHT22;2039;50.894;6.888;2024-03-17T12:09:50;14.30;1.00
4050;DHT22;2039;50.894;6.888;2024-03-17T12:12:21;14.10;1.00
4050;DHT22;2039;50.894;6.888;2024-03-17T12:14:48;14.10;1.00
4050;DHT22;2039;50.894;6.888;2024-03-17T12:17:21;13.90;1.00
4050;DHT22;2039;50.894;6.888;2024-03-17T12:19:47;13.90;1.00
4050;DHT22;2039;50.894;6.888;2024-03-17T12:22:20;13.90;1.00
4050;DHT22;2039;50.894;6.888;2024-03-17T12:24:55;13.80;1.00
4050;DHT22;2039;50.894;6.888;2024-03-17T12:27:23;13.90;1.00
4050;DHT22;2039;50.894;6.888;2024-03-17T12:29:53;14.00;1.00
4050;DHT22;2039;50.894;6.888;2024-03-17T12:32:23;14.10;1.00
4050;DHT22;2039;50.894;6.888;2024-03-17T12:34:54;14.10;1.00
4050;DHT22;2039;50.894;6.888;2024-03-17T12:37:21;14.00;1.00
4050;DHT22;2039;50.894;6.888;2024-03-17T12:39:48;13.90;1.00
4050;DHT22;2039;50.894;6.888;2024-03-17T12:42:23;13.80;1.00
4050;DHT22;2039;50.894;6.888;2024-03-17T12:44:56;13.90;1.00
4050;DHT22;2039;50.894;6.888;2024-03-17T12:47:23;14.00;1.00
4050;DHT22;2039;50.894;6.888;2024-03-17T12:49:51;14.10;1.00
4050;DHT22;2039;50.894;6.888;2024-03-17T12:55:09;14.00;1.00
4050;DHT22;2039;50.894;6.888;2024-03-17T13:01:07;14.10;1.00
4050;DHT22;2039;50.894;6.888;2024-03-17T13:03:34;14.00;1.00
4050;DHT22;2039;50.894;6.888;2024-03-17T13:06:09;14.00;1.00
4050;DHT22;2039;50.894;6.888;2024-03-17T13:08:36;14.00;1.00
4050;DHT22;2039;50.894;6.888;2024-03-17T13:11:02;14.10;1.00
4050;DHT22;2039;50.894;6.888;2024-03-17T13:13:31;14.10;1.00
4050;DHT22;2039;50.894;6.888;2024-03-17T13:15:57;14.10;1.00
4050;DHT22;2039;50.894;6.888;2024-03-17T13:18:24;14.00;1.00
4050;DHT22;2039;50.894;6.888;2024-03-17T13:20:50;13.90;1.00
4050;DHT22;2039;50.894;6.888;2024-03-17T13:23:18;13.90;1.00
4050;DHT22;2039;50.894;6.888;2024-03-17T13:25:44;14.00;1.00
4050;DHT22;2039;50.894;6.888;2024-03-17T13:28:13;14.00;1.00
4050;DHT22;2039;50.894;6.888;2024-03-17T13:30:42;14.00;1.00
4050;DHT22;2039;50.894;6.888;2024-03-17T13:33:10;13.90;1.00
4050;DHT22;2039;50.894;6.888;2024-03-17T13:35:38;13.90;1.00
4050;DHT22;2039;50.894;6.888;2024-03-17T13:38:08;13.90;1.00
4050;DHT22;2039;50.894;6.888;2024-03-17T13:40:35;14.00;1.00
4050;DHT22;2039;50.894;6.888;2024-03-17T13:43:01;14.00;1.00
4050;DHT22;2039;50.894;6.888;2024-03-17T13:45:31;14.00;1.00
4050;DHT22;2039;50.894;6.888;2024-03-17T13:48:02;13.90;1.00
4050;DHT22;2039;50.894;6.888;2024-03-17T13:50:29;13.90;1.00
4050;DHT22;2039;50.894;6.888;2024-03-17T13:52:59;14.00;1.00
4050;DHT22;2039;50.894;6.888;2024-03-17T13:55:25;14.00;1.00
4050;DHT22;2039;50.894;6.888;2024-03-17T13:57:55;13.90;1.00
4050;DHT22;2039;50.894;6.888;2024-03-17T14:00:22;13.80;1.00
4050;DHT22;2039;50.894;6.888;2024-03-17T14:02:52;13.80;1.00
4050;DHT22;2039;50.894;6.888;2024-03-17T14:05:27;13.80;1.00
4050;DHT22;2039;50.894;6.888;2024-03-17T14:07:54;13.90;1.00
4050;DHT22;2039;50.894;6.888;2024-03-17T14:10:27;13.80;1.00
4050;DHT22;2039;50.894;6.888;2024-03-17T14:12:53;13.90;1.00
4050;DHT22;2039;50.894;6.888;2024-03-17T14:15:19;14.00;1.00
4050;DHT22;2039;50.894;6.888;2024-03-17T14:17:45;14.10;1.00
4050;DHT22;2039;50.894;6.888;2024-03-17T14:20:13;14.20;1.00
4050;DHT22;2039;50.894;6.888;2024-03-17T14:22:41;14.40;1.00
4050;DHT22;2039;50.894;6.888;2024-03-17T14:25:12;14.40;1.00
4050;DHT22;2039;50.894;6.888;2024-03-17T14:27:39;14.50;1.00
4050;DHT22;2039;50.894;6.888;2024-03-17T14:30:06;14.60;1.00
4050;DHT22;2039;50.894;6.888;2024-03-17T14:32:34;14.60;1.00
4050;DHT22;2039;50.894;6.888;2024-03-17T14:35:03;14.80;1.00
4050;DHT22;2039;50.894;6.888;2024-03-17T14:37:29;14.90;1.00
4050;DHT22;2039;50.894;6.888;2024-03-17T14:39:58;14.90;1.00
4050;DHT22;2039;50.894;6.888;2024-03-17T14:42:26;15.00;1.00
4050;DHT22;2039;50.894;6.888;2024-03-17T14:44:52;15.10;1.00
4050;DHT22;2039;50.894;6.888;2024-03-17T14:47:18;15.10;1.00
4050;DHT22;2039;50.894;6.888;2024-03-17T14:49:43;15.20;1.00
4050;DHT22;2039;50.894;6.888;2024-03-17T14:52:16;15.30;1.00
4050;DHT22;2039;50.894;6.888;2024-03-17T14:54:45;15.50;1.00
4050;DHT22;2039;50.894;6.888;2024-03-17T14:57:13;15.70;1.00
4050;DHT22;2039;50.894;6.888;2024-03-17T14:59:43;15.80;1.00
4050;DHT22;2039;50.894;6.888;2024-03-17T15:02:08;16.10;1.00
4050;DHT22;2039;50.894;6.888;2024-03-17T15:04:34;16.00;1.00
4050;DHT22;2039;50.894;6.888;2024-03-17T15:07:00;15.90;1.00
4050;DHT22;2039;50.894;6.888;2024-03-17T15:09:25;15.90;1.00
4050;DHT22;2039;50.894;6.888;2024-03-17T15:11:51;16.00;1.00
4050;DHT22;2039;50.894;6.888;2024-03-17T15:14:17;16.00;1.00
4050;DHT22;2039;50.894;6.888;2024-03-17T15:16:43;16.00;1.00
4050;DHT22;2039;50.894;6.888;2024-03-17T15:19:12;15.80;1.00
4050;DHT22;2039;50.894;6.888;2024-03-17T15:21:40;15.60;1.00
4050;DHT22;2039;50.894;6.888;2024-03-17T15:24:06;15.40;1.00
4050;DHT22;2039;50.894;6.888;2024-03-17T15:26:32;15.40;1.00
4050;DHT22;2039;50.894;6.888;2024-03-17T15:28:58;15.20;1.00
4050;DHT22;2039;50.894;6.888;2024-03-17T15:31:34;15.00;1.00
4050;DHT22;2039;50.894;6.888;2024-03-17T15:33:59;14.90;1.00
4050;DHT22;2039;50.894;6.888;2024-03-17T15:36:25;14.90;1.00
4050;DHT22;2039;50.894;6.888;2024-03-17T15:39:09;14.80;1.00
4050;DHT22;2039;50.894;6.888;2024-03-17T15:41:37;14.80;1.00
4050;DHT22;2039;50.894;6.888;2024-03-17T15:44:05;14.80;1.00
4050;DHT22;2039;50.894;6.888;2024-03-17T15:46:31;14.80;1.00
4050;DHT22;2039;50.894;6.888;2024-03-17T15:48:57;14.70;1.00
4050;DHT22;2039;50.894;6.888;2024-03-17T15:51:24;14.70;1.00
4050;DHT22;2039;50.894;6.888;2024-03-17T15:53:50;14.90;1.00
4050;DHT22;2039;50.894;6.888;2024-03-17T15:56:16;15.10;1.00
4050;DHT22;2039;50.894;6.888;2024-03-17T15:58:42;15.40;1.00
4050;DHT22;2039;50.894;6.888;2024-03-17T16:01:08;15.50;1.00
4050;DHT22;2039;50.894;6.888;2024-03-17T16:03:36;15.60;1.00
4050;DHT22;2039;50.894;6.888;2024-03-17T16:08:43;15.70;1.00
4050;DHT22;2039;50.894;6.888;2024-03-17T16:11:15;15.70;1.00
4050;DHT22;2039;50.894;6.888;2024-03-17T16:13:43;15.50;1.00
4050;DHT22;2039;50.894;6.888;2024-03-17T16:16:16;15.30;1.00
4050;DHT22;2039;50.894;6.888;2024-03-17T16:18:48;15.30;1.00
4050;DHT22;2039;50.894;6.888;2024-03-17T16:21:21;15.30;1.00
4050;DHT22;2039;50.894;6.888;2024-03-17T16:23:51;15.20;1.00
4050;DHT22;2039;50.894;6.888;2024-03-17T16:26:19;15.20;1.00
4050;DHT22;2039;50.894;6.888;2024-03-17T16:28:46;14.90;1.00
4050;DHT22;2039;50.894;6.888;2024-03-17T16:31:14;14.80;1.00
4050;DHT22;2039;50.894;6.888;2024-03-17T16:33:40;14.60;1.00
4050;DHT22;2039;50.894;6.888;2024-03-17T16:36:07;14.60;1.00
4050;DHT22;2039;50.894;6.888;2024-03-17T16:38:36;14.60;1.00
4050;DHT22;2039;50.894;6.888;2024-03-17T16:41:04;14.50;1.00
4050;DHT22;2039;50.894;6.888;2024-03-17T16:49:12;14.30;1.00
4050;DHT22;2039;50.894;6.888;2024-03-17T16:51:39;14.20;1.00
4050;DHT22;2039;50.894;6.888;2024-03-17T16:54:05;14.20;1.00
4050;DHT22;2039;50.894;6.888;2024-03-17T16:56:31;14.20;1.00
4050;DHT22;2039;50.894;6.888;2024-03-17T16:58:57;14.10;1.00
4050;DHT22;2039;50.894;6.888;2024-03-17T17:01:23;14.10;1.00
4050;DHT22;2039;50.894;6.888;2024-03-17T17:03:53;14.00;1.00
4050;DHT22;2039;50.894;6.888;2024-03-17T17:06:23;14.00;1.00
4050;DHT22;2039;50.894;6.888;2024-03-17T17:08:49;14.00;1.00
4050;DHT22;2039;50.894;6.888;2024-03-17T17:11:16;13.90;1.00